sensor_id;sensor_type;location;lat;lon;timestamp;P1;durP1;ratioP1;P2;durP2;ratioP2
42586;SDS011;28216;53.362;-6.288;2023-04-22T00:00:48;25.23;;;13.82;;
42586;SDS011;28216;53.362;-6.288;2023-04-22T00:03:13;27.67;;;13.95;;
42586;SDS011;28216;53.362;-6.288;2023-04-22T00:05:39;25.17;;;14.10;;
42586;SDS011;28216;53.362;-6.288;2023-04-22T00:08:06;28.30;;;14.18;;
42586;SDS011;28216;53.362;-6.288;2023-04-22T00:10:32;29.60;;;13.75;;
42586;SDS011;28216;53.362;-6.288;2023-04-22T00:12:57;22.17;;;12.98;;
42586;SDS011;28216;53.362;-6.288;2023-04-22T00:15:23;27.70;;;13.20;;
42586;SDS011;28216;53.362;-6.288;2023-04-22T00:17:49;22.70;;;12.25;;
42586;SDS011;28216;53.362;-6.288;2023-04-22T00:20:15;21.75;;;11.82;;
42586;SDS011;28216;53.362;-6.288;2023-04-22T00:22:41;17.60;;;9.95;;
42586;SDS011;28216;53.362;-6.288;2023-04-22T00:25:07;18.75;;;9.32;;
42586;SDS011;28216;53.362;-6.288;2023-04-22T00:27:32;19.42;;;10.48;;
42586;SDS011;28216;53.362;-6.288;2023-04-22T00:29:58;19.60;;;9.35;;
42586;SDS011;28216;53.362;-6.288;2023-04-22T00:32:23;19.75;;;9.80;;
42586;SDS011;28216;53.362;-6.288;2023-04-22T00:34:50;24.27;;;11.60;;
42586;SDS011;28216;53.362;-6.288;2023-04-22T00:37:15;16.50;;;9.80;;
42586;SDS011;28216;53.362;-6.288;2023-04-22T00:39:41;23.63;;;9.73;;
42586;SDS011;28216;53.362;-6.288;2023-04-22T00:42:06;23.85;;;10.15;;
42586;SDS011;28216;53.362;-6.288;2023-04-22T00:44:31;16.83;;;10.35;;
42586;SDS011;28216;53.362;-6.288;2023-04-22T00:46:58;19.00;;;10.07;;
42586;SDS011;28216;53.362;-6.288;2023-04-22T00:49:25;20.33;;;10.27;;
42586;SDS011;28216;53.362;-6.288;2023-04-22T00:51:51;18.48;;;10.35;;
42586;SDS011;28216;53.362;-6.288;2023-04-22T00:54:17;22.90;;;10.38;;
42586;SDS011;28216;53.362;-6.288;2023-04-22T00:56:43;24.08;;;11.10;;
42586;SDS011;28216;53.362;-6.288;2023-04-22T00:59:10;20.20;;;11.35;;
42586;SDS011;28216;53.362;-6.288;2023-04-22T01:01:35;25.33;;;12.07;;
42586;SDS011;28216;53.362;-6.288;2023-04-22T01:04:02;22.45;;;12.38;;
42586;SDS011;28216;53.362;-6.288;2023-04-22T01:06:28;20.75;;;12.80;;
42586;SDS011;28216;53.362;-6.288;2023-04-22T01:08:56;21.02;;;11.80;;
42586;SDS011;28216;53.362;-6.288;2023-04-22T01:11:23;22.08;;;11.25;;
42586;SDS011;28216;53.362;-6.288;2023-04-22T01:13:48;21.98;;;11.77;;
42586;SDS011;28216;53.362;-6.288;2023-04-22T01:16:15;31.05;;;18.52;;
42586;SDS011;28216;53.362;-6.288;2023-04-22T01:18:41;24.13;;;12.35;;
42586;SDS011;28216;53.362;-6.288;2023-04-22T01:21:06;22.70;;;12.85;;
42586;SDS011;28216;53.362;-6.288;2023-04-22T01:23:32;23.63;;;13.50;;
42586;SDS011;28216;53.362;-6.288;2023-04-22T01:25:58;23.45;;;13.07;;
42586;SDS011;28216;53.362;-6.288;2023-04-22T01:28:23;25.77;;;14.15;;
42586;SDS011;28216;53.362;-6.288;2023-04-22T01:30:50;24.17;;;14.85;;
42586;SDS011;28216;53.362;-6.288;2023-04-22T01:33:16;24.55;;;14.95;;
42586;SDS011;28216;53.362;-6.288;2023-04-22T01:35:42;22.73;;;14.68;;
42586;SDS011;28216;53.362;-6.288;2023-04-22T01:38:08;22.52;;;14.00;;
42586;SDS011;28216;53.362;-6.288;2023-04-22T01:40:36;25.02;;;15.23;;
42586;SDS011;28216;53.362;-6.288;2023-04-22T01:43:02;24.20;;;15.57;;
42586;SDS011;28216;53.362;-6.288;2023-04-22T01:45:28;23.70;;;15.27;;
42586;SDS011;28216;53.362;-6.288;2023-04-22T01:47:54;22.90;;;14.93;;
42586;SDS011;28216;53.362;-6.288;2023-04-22T01:50:19;27.10;;;16.90;;
42586;SDS011;28216;53.362;-6.288;2023-04-22T01:52:46;27.70;;;16.02;;
42586;SDS011;28216;53.362;-6.288;2023-04-22T01:55:12;25.98;;;15.75;;
42586;SDS011;28216;53.362;-6.288;2023-04-22T01:57:38;22.67;;;14.63;;
42586;SDS011;28216;53.362;-6.288;2023-04-22T02:00:03;23.90;;;15.30;;
42586;SDS011;28216;53.362;-6.288;2023-04-22T02:02:30;29.45;;;15.98;;
42586;SDS011;28216;53.362;-6.288;2023-04-22T02:04:55;23.95;;;15.02;;
42586;SDS011;28216;53.362;-6.288;2023-04-22T02:07:21;23.73;;;15.18;;
42586;SDS011;28216;53.362;-6.288;2023-04-22T02:09:47;28.42;;;14.95;;
42586;SDS011;28216;53.362;-6.288;2023-04-22T02:12:14;25.75;;;15.40;;
42586;SDS011;28216;53.362;-6.288;2023-04-22T02:14:39;27.45;;;15.73;;
42586;SDS011;28216;53.362;-6.288;2023-04-22T02:17:04;27.15;;;15.55;;
42586;SDS011;28216;53.362;-6.288;2023-04-22T02:19:30;23.52;;;15.80;;
42586;SDS011;28216;53.362;-6.288;2023-04-22T02:21:56;29.40;;;16.05;;
42586;SDS011;28216;53.362;-6.288;2023-04-22T02:24:21;29.88;;;15.77;;
42586;SDS011;28216;53.362;-6.288;2023-04-22T02:26:47;29.13;;;15.88;;
42586;SDS011;28216;53.362;-6.288;2023-04-22T02:29:13;27.45;;;15.48;;
42586;SDS011;28216;53.362;-6.288;2023-04-22T02:31:38;27.35;;;15.90;;
42586;SDS011;28216;53.362;-6.288;2023-04-22T02:34:04;25.15;;;15.43;;
42586;SDS011;28216;53.362;-6.288;2023-04-22T02:36:29;26.42;;;15.70;;
42586;SDS011;28216;53.362;-6.288;2023-04-22T02:38:56;21.98;;;15.00;;
42586;SDS011;28216;53.362;-6.288;2023-04-22T02:41:22;25.98;;;14.60;;
42586;SDS011;28216;53.362;-6.288;2023-04-22T02:43:48;25.85;;;15.75;;
42586;SDS011;28216;53.362;-6.288;2023-04-22T02:46:13;23.73;;;15.50;;
42586;SDS011;28216;53.362;-6.288;2023-04-22T02:48:40;26.77;;;15.30;;
42586;SDS011;28216;53.362;-6.288;2023-04-22T02:51:07;27.10;;;14.65;;
42586;SDS011;28216;53.362;-6.288;2023-04-22T02:53:32;24.27;;;14.82;;
42586;SDS011;28216;53.362;-6.288;2023-04-22T02:55:58;25.05;;;14.45;;
42586;SDS011;28216;53.362;-6.288;2023-04-22T02:58:23;22.75;;;14.15;;
42586;SDS011;28216;53.362;-6.288;2023-04-22T03:00:50;23.23;;;14.35;;
42586;SDS011;28216;53.362;-6.288;2023-04-22T03:03:16;25.52;;;14.75;;
42586;SDS011;28216;53.362;-6.288;2023-04-22T03:05:41;25.75;;;14.43;;
42586;SDS011;28216;53.362;-6.288;2023-04-22T03:08:07;25.05;;;14.52;;
42586;SDS011;28216;53.362;-6.288;2023-04-22T03:10:32;21.45;;;13.95;;
42586;SDS011;28216;53.362;-6.288;2023-04-22T03:12:57;23.42;;;14.77;;
42586;SDS011;28216;53.362;-6.288;2023-04-22T03:15:23;26.38;;;14.65;;
42586;SDS011;28216;53.362;-6.288;2023-04-22T03:17:49;28.88;;;15.45;;
42586;SDS011;28216;53.362;-6.288;2023-04-22T03:20:14;25.20;;;14.18;;
42586;SDS011;28216;53.362;-6.288;2023-04-22T03:22:40;25.95;;;14.52;;
42586;SDS011;28216;53.362;-6.288;2023-04-22T03:25:06;23.17;;;14.75;;
42586;SDS011;28216;53.362;-6.288;2023-04-22T03:27:31;21.80;;;14.70;;
42586;SDS011;28216;53.362;-6.288;2023-04-22T03:29:57;22.92;;;15.05;;
42586;SDS011;28216;53.362;-6.288;2023-04-22T03:32:22;28.05;;;14.70;;
42586;SDS011;28216;53.362;-6.288;2023-04-22T03:34:48;18.05;;;13.07;;
42586;SDS011;28216;53.362;-6.288;2023-04-22T03:37:13;24.40;;;13.93;;
42586;SDS011;28216;53.362;-6.288;2023-04-22T03:39:39;20.40;;;12.68;;
42586;SDS011;28216;53.362;-6.288;2023-04-22T03:42:05;16.33;;;12.00;;
42586;SDS011;28216;53.362;-6.288;2023-04-22T03:44:30;23.20;;;13.40;;
42586;SDS011;28216;53.362;-6.288;2023-04-22T03:46:56;19.98;;;12.52;;
42586;SDS011;28216;53.362;-6.288;2023-04-22T03:49:21;23.85;;;13.35;;
42586;SDS011;28216;53.362;-6.288;2023-04-22T03:51:46;21.55;;;13.43;;
42586;SDS011;28216;53.362;-6.288;2023-04-22T03:54:12;19.85;;;12.50;;
42586;SDS011;28216;53.362;-6.288;2023-04-22T03:56:37;22.92;;;12.90;;
42586;SDS011;28216;53.362;-6.288;2023-04-22T03:59:03;20.88;;;12.82;;
42586;SDS011;28216;53.362;-6.288;2023-04-22T04:01:28;22.77;;;12.93;;
42586;SDS011;28216;53.362;-6.288;2023-04-22T04:03:54;25.08;;;13.73;;
42586;SDS011;28216;53.362;-6.288;2023-04-22T04:06:19;21.27;;;12.57;;
42586;SDS011;28216;53.362;-6.288;2023-04-22T04:08:45;25.73;;;12.35;;
42586;SDS011;28216;53.362;-6.288;2023-04-22T04:11:11;18.63;;;12.02;;
42586;SDS011;28216;53.362;-6.288;2023-04-22T04:13:36;25.17;;;12.43;;
42586;SDS011;28216;53.362;-6.288;2023-04-22T04:16:02;17.95;;;12.07;;
42586;SDS011;28216;53.362;-6.288;2023-04-22T04:18:28;24.52;;;13.05;;
42586;SDS011;28216;53.362;-6.288;2023-04-22T04:20:53;18.65;;;12.35;;
42586;SDS011;28216;53.362;-6.288;2023-04-22T04:23:20;24.35;;;12.57;;
42586;SDS011;28216;53.362;-6.288;2023-04-22T04:25:45;26.05;;;12.50;;
42586;SDS011;28216;53.362;-6.288;2023-04-22T04:28:12;21.52;;;13.23;;
42586;SDS011;28216;53.362;-6.288;2023-04-22T04:30:38;27.88;;;14.80;;
42586;SDS011;28216;53.362;-6.288;2023-04-22T04:33:05;22.05;;;12.95;;
42586;SDS011;28216;53.362;-6.288;2023-04-22T04:35:31;24.52;;;13.88;;
42586;SDS011;28216;53.362;-6.288;2023-04-22T04:37:58;23.08;;;14.30;;
42586;SDS011;28216;53.362;-6.288;2023-04-22T04:40:24;29.60;;;14.35;;
42586;SDS011;28216;53.362;-6.288;2023-04-22T04:42:50;25.02;;;14.40;;
42586;SDS011;28216;53.362;-6.288;2023-04-22T04:45:17;29.35;;;14.68;;
42586;SDS011;28216;53.362;-6.288;2023-04-22T04:47:43;23.67;;;14.70;;
42586;SDS011;28216;53.362;-6.288;2023-04-22T04:50:10;30.42;;;15.20;;
42586;SDS011;28216;53.362;-6.288;2023-04-22T04:52:36;21.48;;;14.18;;
42586;SDS011;28216;53.362;-6.288;2023-04-22T04:55:01;30.92;;;14.77;;
42586;SDS011;28216;53.362;-6.288;2023-04-22T04:57:27;22.13;;;14.23;;
42586;SDS011;28216;53.362;-6.288;2023-04-22T04:59:53;26.88;;;14.70;;
42586;SDS011;28216;53.362;-6.288;2023-04-22T05:02:18;28.13;;;14.07;;
42586;SDS011;28216;53.362;-6.288;2023-04-22T05:04:43;23.38;;;13.48;;
42586;SDS011;28216;53.362;-6.288;2023-04-22T05:07:09;22.58;;;13.27;;
42586;SDS011;28216;53.362;-6.288;2023-04-22T05:09:34;29.65;;;13.88;;
42586;SDS011;28216;53.362;-6.288;2023-04-22T05:12:02;30.60;;;13.90;;
42586;SDS011;28216;53.362;-6.288;2023-04-22T05:14:28;31.35;;;13.07;;
42586;SDS011;28216;53.362;-6.288;2023-04-22T05:16:54;24.90;;;13.05;;
42586;SDS011;28216;53.362;-6.288;2023-04-22T05:19:20;23.23;;;12.52;;
42586;SDS011;28216;53.362;-6.288;2023-04-22T05:21:45;22.67;;;12.63;;
42586;SDS011;28216;53.362;-6.288;2023-04-22T05:24:11;21.65;;;12.48;;
42586;SDS011;28216;53.362;-6.288;2023-04-22T05:26:36;28.60;;;12.90;;
42586;SDS011;28216;53.362;-6.288;2023-04-22T05:29:02;25.45;;;12.65;;
42586;SDS011;28216;53.362;-6.288;2023-04-22T05:31:27;26.30;;;12.02;;
42586;SDS011;28216;53.362;-6.288;2023-04-22T05:33:53;22.45;;;12.35;;
42586;SDS011;28216;53.362;-6.288;2023-04-22T05:36:18;24.98;;;12.35;;
42586;SDS011;28216;53.362;-6.288;2023-04-22T05:38:44;25.30;;;12.18;;
42586;SDS011;28216;53.362;-6.288;2023-04-22T05:41:09;20.88;;;11.85;;
42586;SDS011;28216;53.362;-6.288;2023-04-22T05:43:35;24.38;;;11.73;;
42586;SDS011;28216;53.362;-6.288;2023-04-22T05:46:00;18.95;;;10.90;;
42586;SDS011;28216;53.362;-6.288;2023-04-22T05:48:26;20.58;;;11.35;;
42586;SDS011;28216;53.362;-6.288;2023-04-22T05:50:51;18.92;;;11.10;;
42586;SDS011;28216;53.362;-6.288;2023-04-22T05:53:18;18.10;;;11.05;;
42586;SDS011;28216;53.362;-6.288;2023-04-22T05:55:43;21.30;;;11.48;;
42586;SDS011;28216;53.362;-6.288;2023-04-22T05:58:09;23.10;;;11.85;;
42586;SDS011;28216;53.362;-6.288;2023-04-22T06:00:34;25.23;;;12.43;;
42586;SDS011;28216;53.362;-6.288;2023-04-22T06:03:00;23.00;;;11.75;;
42586;SDS011;28216;53.362;-6.288;2023-04-22T06:05:25;23.92;;;12.18;;
42586;SDS011;28216;53.362;-6.288;2023-04-22T06:07:51;22.25;;;12.32;;
42586;SDS011;28216;53.362;-6.288;2023-04-22T06:10:17;22.33;;;12.48;;
42586;SDS011;28216;53.362;-6.288;2023-04-22T06:12:42;23.88;;;12.40;;
42586;SDS011;28216;53.362;-6.288;2023-04-22T06:15:08;22.23;;;11.75;;
42586;SDS011;28216;53.362;-6.288;2023-04-22T06:17:34;21.13;;;12.05;;
42586;SDS011;28216;53.362;-6.288;2023-04-22T06:20:00;19.90;;;11.73;;
42586;SDS011;28216;53.362;-6.288;2023-04-22T06:22:25;23.38;;;11.52;;
42586;SDS011;28216;53.362;-6.288;2023-04-22T06:24:50;19.80;;;10.50;;
42586;SDS011;28216;53.362;-6.288;2023-04-22T06:27:16;19.10;;;10.13;;
42586;SDS011;28216;53.362;-6.288;2023-04-22T06:29:41;18.55;;;9.70;;
42586;SDS011;28216;53.362;-6.288;2023-04-22T06:32:07;18.08;;;9.25;;
42586;SDS011;28216;53.362;-6.288;2023-04-22T06:34:32;17.35;;;9.20;;
42586;SDS011;28216;53.362;-6.288;2023-04-22T06:36:58;17.80;;;9.40;;
42586;SDS011;28216;53.362;-6.288;2023-04-22T06:39:23;14.65;;;8.38;;
42586;SDS011;28216;53.362;-6.288;2023-04-22T06:41:49;14.85;;;8.85;;
42586;SDS011;28216;53.362;-6.288;2023-04-22T06:44:14;16.83;;;9.25;;
42586;SDS011;28216;53.362;-6.288;2023-04-22T06:46:40;13.93;;;9.23;;
42586;SDS011;28216;53.362;-6.288;2023-04-22T06:49:05;17.13;;;9.35;;
42586;SDS011;28216;53.362;-6.288;2023-04-22T06:51:30;19.48;;;9.20;;
42586;SDS011;28216;53.362;-6.288;2023-04-22T06:53:56;16.55;;;8.98;;
42586;SDS011;28216;53.362;-6.288;2023-04-22T06:56:22;16.63;;;8.93;;
42586;SDS011;28216;53.362;-6.288;2023-04-22T06:58:48;18.33;;;9.50;;
42586;SDS011;28216;53.362;-6.288;2023-04-22T07:01:14;15.20;;;9.27;;
42586;SDS011;28216;53.362;-6.288;2023-04-22T07:03:39;13.90;;;8.95;;
42586;SDS011;28216;53.362;-6.288;2023-04-22T07:06:06;15.25;;;8.93;;
42586;SDS011;28216;53.362;-6.288;2023-04-22T07:08:32;14.80;;;8.98;;
42586;SDS011;28216;53.362;-6.288;2023-04-22T07:10:57;18.98;;;9.30;;
42586;SDS011;28216;53.362;-6.288;2023-04-22T07:13:23;17.08;;;9.38;;
42586;SDS011;28216;53.362;-6.288;2023-04-22T07:15:48;13.30;;;8.38;;
42586;SDS011;28216;53.362;-6.288;2023-04-22T07:18:14;17.58;;;8.70;;
42586;SDS011;28216;53.362;-6.288;2023-04-22T07:20:39;16.67;;;8.75;;
42586;SDS011;28216;53.362;-6.288;2023-04-22T07:23:05;13.43;;;8.63;;
42586;SDS011;28216;53.362;-6.288;2023-04-22T07:25:30;12.30;;;8.27;;
42586;SDS011;28216;53.362;-6.288;2023-04-22T07:27:56;15.43;;;8.82;;
42586;SDS011;28216;53.362;-6.288;2023-04-22T07:30:21;12.18;;;7.65;;
42586;SDS011;28216;53.362;-6.288;2023-04-22T07:32:47;13.25;;;7.63;;
42586;SDS011;28216;53.362;-6.288;2023-04-22T07:35:12;10.82;;;7.60;;
42586;SDS011;28216;53.362;-6.288;2023-04-22T07:37:38;12.15;;;7.00;;
42586;SDS011;28216;53.362;-6.288;2023-04-22T07:40:04;9.93;;;5.10;;
42586;SDS011;28216;53.362;-6.288;2023-04-22T07:42:30;9.57;;;5.07;;
42586;SDS011;28216;53.362;-6.288;2023-04-22T07:44:55;9.15;;;4.75;;
42586;SDS011;28216;53.362;-6.288;2023-04-22T07:47:21;6.53;;;4.03;;
42586;SDS011;28216;53.362;-6.288;2023-04-22T07:49:46;11.02;;;3.92;;
42586;SDS011;28216;53.362;-6.288;2023-04-22T07:52:12;7.85;;;4.53;;
42586;SDS011;28216;53.362;-6.288;2023-04-22T07:54:40;7.18;;;3.35;;
42586;SDS011;28216;53.362;-6.288;2023-04-22T07:57:05;9.80;;;4.00;;
42586;SDS011;28216;53.362;-6.288;2023-04-22T07:59:31;6.18;;;3.90;;
42586;SDS011;28216;53.362;-6.288;2023-04-22T08:01:56;6.85;;;3.58;;
42586;SDS011;28216;53.362;-6.288;2023-04-22T08:04:22;7.32;;;3.03;;
42586;SDS011;28216;53.362;-6.288;2023-04-22T08:06:48;7.18;;;3.10;;
42586;SDS011;28216;53.362;-6.288;2023-04-22T08:09:13;6.88;;;3.40;;
42586;SDS011;28216;53.362;-6.288;2023-04-22T08:11:38;8.88;;;3.58;;
42586;SDS011;28216;53.362;-6.288;2023-04-22T08:14:04;9.23;;;3.45;;
42586;SDS011;28216;53.362;-6.288;2023-04-22T08:16:29;8.85;;;3.65;;
42586;SDS011;28216;53.362;-6.288;2023-04-22T08:18:55;9.18;;;3.90;;
42586;SDS011;28216;53.362;-6.288;2023-04-22T08:21:21;7.80;;;3.60;;
42586;SDS011;28216;53.362;-6.288;2023-04-22T08:23:47;8.95;;;4.10;;
42586;SDS011;28216;53.362;-6.288;2023-04-22T08:26:12;10.05;;;4.15;;
42586;SDS011;28216;53.362;-6.288;2023-04-22T08:28:40;10.50;;;4.20;;
42586;SDS011;28216;53.362;-6.288;2023-04-22T08:31:06;8.35;;;4.10;;
42586;SDS011;28216;53.362;-6.288;2023-04-22T08:33:34;9.30;;;4.28;;
42586;SDS011;28216;53.362;-6.288;2023-04-22T08:35:59;8.75;;;4.15;;
42586;SDS011;28216;53.362;-6.288;2023-04-22T08:38:27;7.40;;;4.20;;
42586;SDS011;28216;53.362;-6.288;2023-04-22T08:40:53;11.35;;;4.57;;
42586;SDS011;28216;53.362;-6.288;2023-04-22T08:43:20;8.60;;;4.05;;
42586;SDS011;28216;53.362;-6.288;2023-04-22T08:45:46;8.25;;;4.25;;
42586;SDS011;28216;53.362;-6.288;2023-04-22T08:48:13;12.82;;;6.40;;
42586;SDS011;28216;53.362;-6.288;2023-04-22T08:50:40;12.48;;;6.22;;
42586;SDS011;28216;53.362;-6.288;2023-04-22T08:53:05;10.60;;;5.28;;
42586;SDS011;28216;53.362;-6.288;2023-04-22T08:55:31;10.48;;;5.20;;
42586;SDS011;28216;53.362;-6.288;2023-04-22T08:57:59;10.45;;;5.70;;
42586;SDS011;28216;53.362;-6.288;2023-04-22T09:00:25;10.75;;;5.60;;
42586;SDS011;28216;53.362;-6.288;2023-04-22T09:02:51;10.80;;;6.10;;
42586;SDS011;28216;53.362;-6.288;2023-04-22T09:05:17;9.50;;;5.63;;
42586;SDS011;28216;53.362;-6.288;2023-04-22T09:07:46;9.85;;;5.80;;
42586;SDS011;28216;53.362;-6.288;2023-04-22T09:10:12;10.68;;;6.15;;
42586;SDS011;28216;53.362;-6.288;2023-04-22T09:12:39;10.68;;;6.55;;
42586;SDS011;28216;53.362;-6.288;2023-04-22T09:15:05;9.93;;;6.55;;
42586;SDS011;28216;53.362;-6.288;2023-04-22T09:17:34;10.05;;;7.07;;
42586;SDS011;28216;53.362;-6.288;2023-04-22T09:20:03;9.70;;;5.65;;
42586;SDS011;28216;53.362;-6.288;2023-04-22T09:22:37;9.63;;;6.10;;
42586;SDS011;28216;53.362;-6.288;2023-04-22T09:25:05;8.82;;;5.45;;
42586;SDS011;28216;53.362;-6.288;2023-04-22T09:27:38;7.80;;;5.55;;
42586;SDS011;28216;53.362;-6.288;2023-04-22T09:30:06;10.35;;;6.22;;
42586;SDS011;28216;53.362;-6.288;2023-04-22T09:32:33;9.93;;;5.95;;
42586;SDS011;28216;53.362;-6.288;2023-04-22T09:34:58;10.43;;;6.15;;
42586;SDS011;28216;53.362;-6.288;2023-04-22T09:37:25;14.07;;;6.45;;
42586;SDS011;28216;53.362;-6.288;2023-04-22T09:39:51;11.68;;;6.93;;
42586;SDS011;28216;53.362;-6.288;2023-04-22T09:42:17;10.43;;;6.25;;
42586;SDS011;28216;53.362;-6.288;2023-04-22T09:44:44;8.32;;;6.47;;
42586;SDS011;28216;53.362;-6.288;2023-04-22T09:47:17;9.50;;;5.70;;
42586;SDS011;28216;53.362;-6.288;2023-04-22T09:49:45;8.82;;;5.30;;
42586;SDS011;28216;53.362;-6.288;2023-04-22T09:52:24;9.43;;;5.07;;
42586;SDS011;28216;53.362;-6.288;2023-04-22T09:54:51;7.95;;;5.10;;
42586;SDS011;28216;53.362;-6.288;2023-04-22T09:57:18;7.90;;;5.43;;
42586;SDS011;28216;53.362;-6.288;2023-04-22T09:59:43;8.85;;;5.18;;
42586;SDS011;28216;53.362;-6.288;2023-04-22T10:02:09;9.95;;;5.80;;
42586;SDS011;28216;53.362;-6.288;2023-04-22T10:04:35;8.95;;;6.30;;
42586;SDS011;28216;53.362;-6.288;2023-04-22T10:07:00;10.55;;;5.38;;
42586;SDS011;28216;53.362;-6.288;2023-04-22T10:09:29;8.88;;;5.68;;
42586;SDS011;28216;53.362;-6.288;2023-04-22T10:11:55;8.07;;;4.82;;
42586;SDS011;28216;53.362;-6.288;2023-04-22T10:14:24;7.35;;;4.45;;
42586;SDS011;28216;53.362;-6.288;2023-04-22T10:16:55;6.05;;;4.38;;
42586;SDS011;28216;53.362;-6.288;2023-04-22T10:19:24;6.47;;;4.50;;
42586;SDS011;28216;53.362;-6.288;2023-04-22T10:21:52;6.93;;;4.40;;
42586;SDS011;28216;53.362;-6.288;2023-04-22T10:24:20;9.32;;;4.65;;
42586;SDS011;28216;53.362;-6.288;2023-04-22T10:26:49;7.13;;;4.68;;
42586;SDS011;28216;53.362;-6.288;2023-04-22T10:29:18;5.18;;;4.68;;
42586;SDS011;28216;53.362;-6.288;2023-04-22T10:34:47;5.97;;;4.60;;
42586;SDS011;28216;53.362;-6.288;2023-04-22T10:37:19;8.55;;;5.20;;
42586;SDS011;28216;53.362;-6.288;2023-04-22T10:42:41;9.10;;;5.28;;
42586;SDS011;28216;53.362;-6.288;2023-04-22T10:45:13;7.68;;;5.22;;
42586;SDS011;28216;53.362;-6.288;2023-04-22T10:47:39;12.15;;;7.57;;
42586;SDS011;28216;53.362;-6.288;2023-04-22T10:52:48;8.27;;;5.50;;
42586;SDS011;28216;53.362;-6.288;2023-04-22T10:55:15;9.05;;;5.10;;
42586;SDS011;28216;53.362;-6.288;2023-04-22T10:57:41;7.65;;;5.38;;
42586;SDS011;28216;53.362;-6.288;2023-04-22T11:00:25;8.57;;;6.72;;
42586;SDS011;28216;53.362;-6.288;2023-04-22T11:05:25;7.35;;;6.10;;
42586;SDS011;28216;53.362;-6.288;2023-04-22T11:07:55;8.27;;;6.55;;
42586;SDS011;28216;53.362;-6.288;2023-04-22T11:10:30;8.23;;;6.72;;
42586;SDS011;28216;53.362;-6.288;2023-04-22T11:13:01;8.23;;;6.90;;
42586;SDS011;28216;53.362;-6.288;2023-04-22T11:15:28;7.47;;;6.45;;
42586;SDS011;28216;53.362;-6.288;2023-04-22T11:17:55;8.50;;;7.57;;
42586;SDS011;28216;53.362;-6.288;2023-04-22T11:20:21;8.65;;;7.75;;
42586;SDS011;28216;53.362;-6.288;2023-04-22T11:22:50;11.50;;;8.25;;
42586;SDS011;28216;53.362;-6.288;2023-04-22T11:25:17;11.65;;;8.25;;
42586;SDS011;28216;53.362;-6.288;2023-04-22T11:27:44;10.32;;;8.95;;
42586;SDS011;28216;53.362;-6.288;2023-04-22T11:30:11;12.27;;;9.45;;
42586;SDS011;28216;53.362;-6.288;2023-04-22T11:32:44;9.77;;;8.77;;
42586;SDS011;28216;53.362;-6.288;2023-04-22T11:35:13;11.48;;;9.10;;
42586;SDS011;28216;53.362;-6.288;2023-04-22T11:40:10;10.50;;;8.52;;
42586;SDS011;28216;53.362;-6.288;2023-04-22T11:42:47;11.02;;;8.43;;
42586;SDS011;28216;53.362;-6.288;2023-04-22T11:45:13;12.07;;;9.85;;
42586;SDS011;28216;53.362;-6.288;2023-04-22T11:47:39;13.90;;;11.38;;
42586;SDS011;28216;53.362;-6.288;2023-04-22T11:50:06;13.63;;;11.68;;
42586;SDS011;28216;53.362;-6.288;2023-04-22T11:55:27;13.40;;;11.13;;
42586;SDS011;28216;53.362;-6.288;2023-04-22T11:58:07;13.80;;;10.68;;
42586;SDS011;28216;53.362;-6.288;2023-04-22T12:00:41;13.63;;;9.82;;
42586;SDS011;28216;53.362;-6.288;2023-04-22T12:05:41;10.18;;;9.13;;
42586;SDS011;28216;53.362;-6.288;2023-04-22T12:10:39;11.57;;;9.63;;
42586;SDS011;28216;53.362;-6.288;2023-04-22T12:13:09;11.63;;;8.85;;
42586;SDS011;28216;53.362;-6.288;2023-04-22T12:15:42;8.85;;;7.60;;
42586;SDS011;28216;53.362;-6.288;2023-04-22T12:18:08;12.13;;;8.35;;
42586;SDS011;28216;53.362;-6.288;2023-04-22T12:20:37;9.80;;;8.40;;
42586;SDS011;28216;53.362;-6.288;2023-04-22T12:23:04;11.10;;;8.85;;
42586;SDS011;28216;53.362;-6.288;2023-04-22T12:25:30;13.25;;;10.10;;
42586;SDS011;28216;53.362;-6.288;2023-04-22T12:27:58;14.25;;;10.05;;
42586;SDS011;28216;53.362;-6.288;2023-04-22T12:30:29;12.45;;;9.85;;
42586;SDS011;28216;53.362;-6.288;2023-04-22T12:32:55;11.10;;;9.73;;
42586;SDS011;28216;53.362;-6.288;2023-04-22T12:35:21;10.60;;;8.75;;
42586;SDS011;28216;53.362;-6.288;2023-04-22T12:37:46;9.82;;;8.07;;
42586;SDS011;28216;53.362;-6.288;2023-04-22T12:40:12;7.13;;;6.43;;
42586;SDS011;28216;53.362;-6.288;2023-04-22T12:42:37;10.55;;;7.25;;
42586;SDS011;28216;53.362;-6.288;2023-04-22T12:45:03;10.93;;;7.88;;
42586;SDS011;28216;53.362;-6.288;2023-04-22T12:47:29;7.97;;;7.18;;
42586;SDS011;28216;53.362;-6.288;2023-04-22T12:49:55;9.50;;;8.30;;
42586;SDS011;28216;53.362;-6.288;2023-04-22T12:52:22;10.05;;;8.38;;
42586;SDS011;28216;53.362;-6.288;2023-04-22T12:54:48;12.38;;;10.20;;
42586;SDS011;28216;53.362;-6.288;2023-04-22T12:57:20;9.00;;;7.50;;
42586;SDS011;28216;53.362;-6.288;2023-04-22T12:59:46;9.32;;;7.82;;
42586;SDS011;28216;53.362;-6.288;2023-04-22T13:02:12;8.40;;;7.50;;
42586;SDS011;28216;53.362;-6.288;2023-04-22T13:04:43;8.75;;;7.05;;
42586;SDS011;28216;53.362;-6.288;2023-04-22T13:07:11;9.65;;;6.88;;
42586;SDS011;28216;53.362;-6.288;2023-04-22T13:09:40;9.05;;;7.43;;
42586;SDS011;28216;53.362;-6.288;2023-04-22T13:12:06;8.52;;;7.72;;
42586;SDS011;28216;53.362;-6.288;2023-04-22T13:14:31;8.35;;;7.55;;
42586;SDS011;28216;53.362;-6.288;2023-04-22T13:16:56;9.93;;;7.88;;
42586;SDS011;28216;53.362;-6.288;2023-04-22T13:19:22;10.25;;;8.77;;
42586;SDS011;28216;53.362;-6.288;2023-04-22T13:21:49;10.43;;;9.32;;
42586;SDS011;28216;53.362;-6.288;2023-04-22T13:24:15;10.07;;;9.07;;
42586;SDS011;28216;53.362;-6.288;2023-04-22T13:26:42;9.43;;;8.50;;
42586;SDS011;28216;53.362;-6.288;2023-04-22T13:29:08;11.98;;;9.48;;
42586;SDS011;28216;53.362;-6.288;2023-04-22T13:31:38;10.13;;;8.43;;
42586;SDS011;28216;53.362;-6.288;2023-04-22T13:34:06;11.43;;;9.43;;
42586;SDS011;28216;53.362;-6.288;2023-04-22T13:36:31;9.90;;;8.82;;
42586;SDS011;28216;53.362;-6.288;2023-04-22T13:38:57;11.88;;;9.48;;
42586;SDS011;28216;53.362;-6.288;2023-04-22T13:41:24;14.55;;;11.80;;
42586;SDS011;28216;53.362;-6.288;2023-04-22T13:43:49;13.32;;;9.18;;
42586;SDS011;28216;53.362;-6.288;2023-04-22T13:46:18;11.50;;;8.20;;
42586;SDS011;28216;53.362;-6.288;2023-04-22T13:48:44;10.07;;;8.02;;
42586;SDS011;28216;53.362;-6.288;2023-04-22T13:51:10;8.60;;;7.53;;
42586;SDS011;28216;53.362;-6.288;2023-04-22T13:53:35;8.93;;;7.72;;
42586;SDS011;28216;53.362;-6.288;2023-04-22T13:56:01;9.43;;;7.30;;
42586;SDS011;28216;53.362;-6.288;2023-04-22T13:58:26;11.50;;;9.38;;
42586;SDS011;28216;53.362;-6.288;2023-04-22T14:00:52;22.17;;;13.93;;
42586;SDS011;28216;53.362;-6.288;2023-04-22T14:03:17;30.30;;;17.55;;
42586;SDS011;28216;53.362;-6.288;2023-04-22T14:05:43;18.05;;;12.25;;
42586;SDS011;28216;53.362;-6.288;2023-04-22T14:08:08;10.55;;;7.70;;
42586;SDS011;28216;53.362;-6.288;2023-04-22T14:10:34;13.75;;;10.15;;
42586;SDS011;28216;53.362;-6.288;2023-04-22T14:12:59;15.80;;;10.90;;
42586;SDS011;28216;53.362;-6.288;2023-04-22T14:15:25;11.57;;;9.77;;
42586;SDS011;28216;53.362;-6.288;2023-04-22T14:17:50;9.45;;;8.27;;
42586;SDS011;28216;53.362;-6.288;2023-04-22T14:20:15;14.88;;;10.63;;
42586;SDS011;28216;53.362;-6.288;2023-04-22T14:22:41;13.57;;;10.27;;
42586;SDS011;28216;53.362;-6.288;2023-04-22T14:25:06;11.55;;;9.30;;
42586;SDS011;28216;53.362;-6.288;2023-04-22T14:27:32;10.27;;;8.30;;
42586;SDS011;28216;53.362;-6.288;2023-04-22T14:29:58;9.18;;;8.27;;
42586;SDS011;28216;53.362;-6.288;2023-04-22T14:32:23;11.35;;;8.68;;
42586;SDS011;28216;53.362;-6.288;2023-04-22T14:34:52;10.80;;;9.23;;